Time,TemperatureF,DewpointF,PressureIn,WindDirection,WindDirectionDegrees,WindSpeedMPH,WindSpeedGustMPH,Humidity,HourlyPrecipIn,Conditions,Clouds,dailyrainin,SoftwareType,DateUTC
2013-03-16 00:03:00,47.0,42.0,30.22,NW,305,0.0,0.0,82,0.00,,,0.00,,2013-03-16 04:03:00,
2013-03-16 00:13:00,47.0,42.0,30.22,NW,305,0.0,0.0,82,0.00,,,0.00,,2013-03-16 04:13:00,
2013-03-16 00:23:00,46.0,41.0,30.22,NW,305,0.0,0.0,82,0.00,,,0.00,,2013-03-16 04:23:00,
2013-03-16 00:33:00,46.0,41.0,30.21,NW,305,0.0,0.0,84,0.00,,,0.00,,2013-03-16 04:33:00,
2013-03-16 00:43:00,46.0,41.0,30.21,NW,305,0.0,0.0,84,0.00,,,0.00,,2013-03-16 04:43:00,
2013-03-16 00:52:00,46.0,41.0,30.21,NW,305,0.0,1.0,83,0.00,,,0.00,,2013-03-16 04:52:00,
2013-03-16 01:03:00,46.0,41.0,30.22,NW,305,0.0,0.0,82,0.00,,,0.00,,2013-03-16 05:03:00,
2013-03-16 01:12:00,46.0,41.0,30.22,NW,305,0.0,0.0,82,0.00,,,0.00,,2013-03-16 05:12:00,
2013-03-16 01:22:00,48.0,42.0,30.21,ENE,77,3.0,7.0,81,0.00,,,0.00,,2013-03-16 05:22:00,
2013-03-16 01:32:00,47.0,42.0,30.21,East,96,0.0,1.0,82,0.00,,,0.00,,2013-03-16 05:32:00,
2013-03-16 01:42:00,47.0,42.0,30.21,East,96,0.0,1.0,82,0.00,,,0.00,,2013-03-16 05:42:00,
2013-03-16 01:52:00,45.0,41.0,30.21,East,96,0.0,2.0,86,0.00,,,0.00,,2013-03-16 05:52:00,
2013-03-16 02:02:00,45.0,42.0,30.21,ESE,122,0.0,1.0,88,0.00,,,0.00,,2013-03-16 06:02:00,
2013-03-16 02:12:00,45.0,42.0,30.21,ESE,122,0.0,1.0,88,0.00,,,0.00,,2013-03-16 06:12:00,
2013-03-16 02:22:00,44.0,41.0,30.20,ESE,122,0.0,0.0,89,0.00,,,0.00,,2013-03-16 06:22:00,
2013-03-16 02:32:00,44.0,42.0,30.19,SE,127,0.0,0.0,91,0.00,,,0.00,,2013-03-16 06:32:00,
2013-03-16 02:42:00,44.0,42.0,30.19,SE,127,0.0,0.0,91,0.00,,,0.00,,2013-03-16 06:42:00,
2013-03-16 02:52:00,44.0,42.0,30.19,SE,127,0.0,0.0,91,0.00,,,0.00,,2013-03-16 06:52:00,
2013-03-16 03:02:00,43.0,41.0,30.19,SE,127,0.0,0.0,91,0.00,,,0.00,,2013-03-16 07:02:00,
2013-03-16 03:12:00,43.0,41.0,30.19,SE,127,0.0,0.0,91,0.00,,,0.00,,2013-03-16 07:12:00,
2013-03-16 03:22:00,43.0,41.0,30.19,SE,127,0.0,1.0,92,0.00,,,0.00,,2013-03-16 07:22:00,
2013-03-16 03:32:00,43.0,41.0,30.19,SE,127,0.0,0.0,93,0.00,,,0.00,,2013-03-16 07:32:00,
2013-03-16 03:42:00,43.0,41.0,30.19,SE,127,0.0,0.0,93,0.00,,,0.00,,2013-03-16 07:42:00,
2013-03-16 03:52:00,43.0,41.0,30.19,SSE,161,0.0,2.0,93,0.00,,,0.00,,2013-03-16 07:52:00,
2013-03-16 04:03:00,43.0,41.0,30.19,SSE,161,0.0,1.0,93,0.00,,,0.00,,2013-03-16 08:03:00,
2013-03-16 04:12:00,43.0,41.0,30.19,SSE,161,0.0,1.0,93,0.00,,,0.00,,2013-03-16 08:12:00,
2013-03-16 04:23:00,42.0,40.0,30.18,SSE,166,1.0,2.0,94,0.00,,,0.00,,2013-03-16 08:23:00,
2013-03-16 04:33:00,42.0,40.0,30.18,SSE,166,0.0,2.0,94,0.00,,,0.00,,2013-03-16 08:33:00,
2013-03-16 04:42:00,42.0,40.0,30.18,SSE,166,0.0,2.0,94,0.00,,,0.00,,2013-03-16 08:42:00,
2013-03-16 04:52:00,42.0,40.0,30.18,SSE,167,0.0,2.0,94,0.00,,,0.00,,2013-03-16 08:52:00,
2013-03-16 05:02:00,42.0,40.0,30.18,SW,222,0.0,1.0,94,0.00,,,0.00,,2013-03-16 09:02:00,
2013-03-16 05:12:00,42.0,40.0,30.18,SW,222,0.0,1.0,94,0.00,,,0.00,,2013-03-16 09:12:00,
2013-03-16 05:22:00,42.0,40.0,30.17,SW,222,0.0,2.0,94,0.00,,,0.00,,2013-03-16 09:22:00,
2013-03-16 05:33:00,42.0,40.0,30.17,SW,222,0.0,0.0,94,0.00,,,0.00,,2013-03-16 09:33:00,
2013-03-16 05:42:00,42.0,40.0,30.17,SW,222,0.0,0.0,94,0.00,,,0.00,,2013-03-16 09:42:00,
2013-03-16 05:52:00,42.0,41.0,30.17,SW,222,0.0,0.0,95,0.00,,,0.00,,2013-03-16 09:52:00,
2013-03-16 06:03:00,42.0,41.0,30.17,SW,222,0.0,0.0,95,0.00,,,0.00,,2013-03-16 10:03:00,
2013-03-16 06:12:00,42.0,41.0,30.17,SW,222,0.0,0.0,95,0.00,,,0.00,,2013-03-16 10:12:00,
2013-03-16 06:23:00,42.0,41.0,30.17,SW,222,0.0,0.0,95,0.00,,,0.00,,2013-03-16 10:23:00,
2013-03-16 06:32:00,42.0,41.0,30.17,SW,222,0.0,0.0,95,0.00,,,0.00,,2013-03-16 10:32:00,
2013-03-16 06:42:00,42.0,41.0,30.17,SW,222,0.0,0.0,95,0.00,,,0.00,,2013-03-16 10:42:00,
2013-03-16 06:52:00,41.0,40.0,30.17,SW,222,0.0,0.0,95,0.00,,,0.00,,2013-03-16 10:52:00,
2013-03-16 07:03:00,41.0,40.0,30.18,SW,222,0.0,0.0,95,0.00,,,0.00,,2013-03-16 11:03:00,
2013-03-16 07:12:00,41.0,40.0,30.18,SW,222,0.0,0.0,95,0.00,,,0.00,,2013-03-16 11:12:00,
2013-03-16 07:22:00,41.0,40.0,30.19,SW,222,0.0,0.0,95,0.00,,,0.00,,2013-03-16 11:22:00,
2013-03-16 07:33:00,41.0,40.0,30.19,SW,222,0.0,0.0,95,0.00,,,0.00,,2013-03-16 11:33:00,
2013-03-16 07:43:00,41.0,40.0,30.19,SW,222,0.0,0.0,95,0.00,,,0.00,,2013-03-16 11:43:00,
2013-03-16 07:52:00,41.0,40.0,30.19,SW,222,0.0,1.0,95,0.00,,,0.00,,2013-03-16 11:52:00,
2013-03-16 08:02:00,41.0,40.0,30.20,SW,222,0.0,1.0,95,0.00,,,0.00,,2013-03-16 12:02:00,
2013-03-16 08:12:00,41.0,40.0,30.20,SW,222,0.0,1.0,95,0.00,,,0.00,,2013-03-16 12:12:00,
2013-03-16 08:22:00,41.0,40.0,30.21,SW,222,0.0,0.0,95,0.00,,,0.00,,2013-03-16 12:22:00,
2013-03-16 08:32:00,42.0,41.0,30.21,SW,222,0.0,1.0,96,0.00,,,0.00,,2013-03-16 12:32:00,
2013-03-16 08:42:00,42.0,41.0,30.21,SW,222,0.0,1.0,96,0.00,,,0.00,,2013-03-16 12:42:00,
2013-03-16 08:52:00,44.0,43.0,30.21,SW,222,0.0,0.0,96,0.00,,,0.00,,2013-03-16 12:52:00,
2013-03-16 09:02:00,47.0,46.0,30.21,SSW,206,0.0,1.0,97,0.00,,,0.00,,2013-03-16 13:02:00,
2013-03-16 09:12:00,47.0,46.0,30.21,SSW,206,0.0,1.0,97,0.00,,,0.00,,2013-03-16 13:12:00,
2013-03-16 09:22:00,47.0,46.0,30.21,SSW,206,0.0,1.0,97,0.00,,,0.00,,2013-03-16 13:22:00,
2013-03-16 09:32:00,55.0,51.0,30.21,SSE,166,0.0,2.0,85,0.00,,,0.00,,2013-03-16 13:32:00,
2013-03-16 09:43:00,55.0,51.0,30.21,SSE,166,0.0,2.0,85,0.00,,,0.00,,2013-03-16 13:43:00,
2013-03-16 09:53:00,59.0,50.0,30.21,SSE,147,0.0,3.0,72,0.00,,,0.00,,2013-03-16 13:53:00,
2013-03-16 10:03:00,62.0,46.0,30.22,SE,141,1.0,5.0,56,0.00,,,0.00,,2013-03-16 14:03:00,
2013-03-16 10:12:00,62.0,46.0,30.22,SE,141,1.0,5.0,56,0.00,,,0.00,,2013-03-16 14:12:00,
2013-03-16 10:22:00,63.0,45.0,30.22,SE,134,2.0,4.0,51,0.00,,,0.00,,2013-03-16 14:22:00,
2013-03-16 10:32:00,65.0,46.0,30.22,SE,132,0.0,6.0,50,0.00,,,0.00,,2013-03-16 14:32:00,
2013-03-16 10:42:00,65.0,46.0,30.22,SE,132,0.0,6.0,50,0.00,,,0.00,,2013-03-16 14:42:00,
2013-03-16 10:52:00,66.0,49.0,30.22,WSW,256,2.0,7.0,54,0.00,,,0.00,,2013-03-16 14:52:00,
2013-03-16 11:03:00,67.0,52.0,30.22,SW,222,3.0,10.0,58,0.00,,,0.00,,2013-03-16 15:03:00,
2013-03-16 11:13:00,67.0,52.0,30.22,SW,222,3.0,10.0,58,0.00,,,0.00,,2013-03-16 15:13:00,
2013-03-16 11:23:00,68.0,52.0,30.21,SW,234,2.0,7.0,57,0.00,,,0.00,,2013-03-16 15:23:00,
2013-03-16 11:33:00,69.0,51.0,30.21,SW,229,4.0,9.0,53,0.00,,,0.00,,2013-03-16 15:33:00,
2013-03-16 11:43:00,69.0,51.0,30.21,SW,229,4.0,9.0,53,0.00,,,0.00,,2013-03-16 15:43:00,
2013-03-16 11:53:00,70.0,52.0,30.21,WNW,284,2.0,9.0,52,0.00,,,0.00,,2013-03-16 15:53:00,
2013-03-16 12:03:00,71.0,51.0,30.20,WSW,237,3.0,6.0,49,0.00,,,0.00,,2013-03-16 16:03:00,
2013-03-16 12:13:00,71.0,51.0,30.20,WSW,237,3.0,6.0,49,0.00,,,0.00,,2013-03-16 16:13:00,
2013-03-16 12:23:00,71.0,50.0,30.20,SW,232,3.0,9.0,48,0.00,,,0.00,,2013-03-16 16:23:00,
2013-03-16 12:33:00,72.0,51.0,30.19,SSE,153,3.0,8.0,47,0.00,,,0.00,,2013-03-16 16:33:00,
2013-03-16 12:42:00,72.0,51.0,30.19,SSE,153,3.0,8.0,47,0.00,,,0.00,,2013-03-16 16:42:00,
2013-03-16 12:53:00,73.0,49.0,30.19,South,188,3.0,9.0,42,0.00,,,0.00,,2013-03-16 16:53:00,
2013-03-16 13:03:00,74.0,50.0,30.18,SW,227,4.0,7.0,43,0.00,,,0.00,,2013-03-16 17:03:00,
2013-03-16 13:13:00,74.0,50.0,30.18,SW,227,4.0,7.0,43,0.00,,,0.00,,2013-03-16 17:13:00,
2013-03-16 13:23:00,74.0,49.0,30.18,SSW,205,2.0,8.0,41,0.00,,,0.00,,2013-03-16 17:23:00,
2013-03-16 13:33:00,74.0,48.0,30.17,West,279,2.0,6.0,40,0.00,,,0.00,,2013-03-16 17:33:00,
2013-03-16 13:43:00,74.0,48.0,30.17,West,279,2.0,6.0,40,0.00,,,0.00,,2013-03-16 17:43:00,
2013-03-16 13:52:00,77.0,50.0,30.16,WSW,240,5.0,12.0,39,0.00,,,0.00,,2013-03-16 17:52:00,
2013-03-16 14:03:00,77.0,49.0,30.16,West,259,3.0,9.0,38,0.00,,,0.00,,2013-03-16 18:03:00,
2013-03-16 14:13:00,77.0,49.0,30.16,West,259,3.0,9.0,38,0.00,,,0.00,,2013-03-16 18:13:00,
2013-03-16 14:23:00,77.0,49.0,30.15,WSW,240,5.0,8.0,38,0.00,,,0.00,,2013-03-16 18:23:00,
2013-03-16 14:33:00,77.0,48.0,30.14,NNW,327,2.0,6.0,36,0.00,,,0.00,,2013-03-16 18:33:00,
2013-03-16 14:43:00,77.0,48.0,30.14,NNW,327,2.0,6.0,36,0.00,,,0.00,,2013-03-16 18:43:00,
2013-03-16 14:52:00,77.0,46.0,30.13,NNW,334,1.0,7.0,34,0.00,,,0.00,,2013-03-16 18:52:00,
2013-03-16 15:02:00,77.0,46.0,30.13,NNW,334,1.0,7.0,34,0.00,,,0.00,,2013-03-16 19:02:00,
2013-03-16 15:12:00,77.0,46.0,30.13,NNW,334,1.0,7.0,34,0.00,,,0.00,,2013-03-16 19:12:00,
2013-03-16 15:22:00,79.0,47.0,30.11,WSW,254,3.0,8.0,33,0.00,,,0.00,,2013-03-16 19:22:00,
2013-03-16 15:33:00,79.0,47.0,30.11,West,279,3.0,8.0,32,0.00,,,0.00,,2013-03-16 19:33:00,
2013-03-16 15:42:00,79.0,47.0,30.11,West,279,3.0,8.0,32,0.00,,,0.00,,2013-03-16 19:42:00,
2013-03-16 15:52:00,79.0,44.0,30.10,ESE,115,1.0,7.0,29,0.00,,,0.00,,2013-03-16 19:52:00,
2013-03-16 16:02:00,79.0,46.0,30.10,WSW,238,4.0,9.0,31,0.00,,,0.00,,2013-03-16 20:02:00,
2013-03-16 16:12:00,79.0,46.0,30.10,WSW,238,4.0,9.0,31,0.00,,,0.00,,2013-03-16 20:12:00,
2013-03-16 16:22:00,79.0,46.0,30.09,West,275,1.0,5.0,31,0.00,,,0.00,,2013-03-16 20:22:00,
2013-03-16 16:33:00,79.0,45.0,30.09,SW,232,5.0,11.0,30,0.00,,,0.00,,2013-03-16 20:33:00,
2013-03-16 16:42:00,79.0,45.0,30.09,SW,232,5.0,11.0,30,0.00,,,0.00,,2013-03-16 20:42:00,
2013-03-16 16:52:00,80.0,47.0,30.09,SSW,202,3.0,8.0,32,0.00,,,0.00,,2013-03-16 20:52:00,
2013-03-16 17:02:00,78.0,46.0,30.08,South,186,2.0,8.0,32,0.00,,,0.00,,2013-03-16 21:02:00,
2013-03-16 17:12:00,78.0,46.0,30.08,South,186,2.0,8.0,32,0.00,,,0.00,,2013-03-16 21:12:00,
2013-03-16 17:23:00,78.0,47.0,30.08,WSW,254,2.0,6.0,33,0.00,,,0.00,,2013-03-16 21:23:00,
2013-03-16 17:33:00,78.0,46.0,30.07,West,273,2.0,7.0,32,0.00,,,0.00,,2013-03-16 21:33:00,
2013-03-16 17:43:00,78.0,46.0,30.07,West,273,2.0,7.0,32,0.00,,,0.00,,2013-03-16 21:43:00,
2013-03-16 17:52:00,77.0,45.0,30.07,West,273,2.0,7.0,32,0.00,,,0.00,,2013-03-16 21:52:00,
2013-03-16 18:03:00,77.0,44.0,30.07,West,269,2.0,9.0,31,0.00,,,0.00,,2013-03-16 22:03:00,
2013-03-16 18:13:00,77.0,44.0,30.07,West,269,2.0,9.0,31,0.00,,,0.00,,2013-03-16 22:13:00,
2013-03-16 18:23:00,77.0,46.0,30.07,SSE,165,1.0,3.0,34,0.00,,,0.00,,2013-03-16 22:23:00,
2013-03-16 18:33:00,75.0,48.0,30.07,West,275,7.0,13.0,39,0.00,,,0.00,,2013-03-16 22:33:00,
2013-03-16 18:42:00,75.0,48.0,30.07,West,275,7.0,13.0,39,0.00,,,0.00,,2013-03-16 22:42:00,
2013-03-16 18:52:00,74.0,49.0,30.08,WSW,258,6.0,13.0,42,0.00,,,0.00,,2013-03-16 22:52:00,
2013-03-16 19:02:00,72.0,48.0,30.09,West,277,5.0,14.0,43,0.00,,,0.00,,2013-03-16 23:02:00,
2013-03-16 19:13:00,72.0,48.0,30.09,West,277,5.0,14.0,43,0.00,,,0.00,,2013-03-16 23:13:00,
2013-03-16 19:23:00,70.0,48.0,30.09,WSW,245,6.0,11.0,45,0.00,,,0.00,,2013-03-16 23:23:00,
2013-03-16 19:33:00,68.0,49.0,30.09,West,260,3.0,9.0,50,0.00,,,0.00,,2013-03-16 23:33:00,
2013-03-16 19:42:00,68.0,49.0,30.09,West,260,3.0,9.0,50,0.00,,,0.00,,2013-03-16 23:42:00,
2013-03-16 19:52:00,67.0,48.0,30.09,WNW,291,4.0,11.0,50,0.00,,,0.00,,2013-03-16 23:52:00,
2013-03-16 20:02:00,66.0,48.0,30.09,West,270,5.0,12.0,53,0.00,,,0.00,,2013-03-17 00:02:00,
2013-03-16 20:13:00,66.0,48.0,30.09,West,270,5.0,12.0,53,0.00,,,0.00,,2013-03-17 00:13:00,
2013-03-16 20:23:00,65.0,49.0,30.10,SSW,197,3.0,8.0,56,0.00,,,0.00,,2013-03-17 00:23:00,
2013-03-16 20:33:00,63.0,49.0,30.10,WNW,295,5.0,9.0,60,0.00,,,0.00,,2013-03-17 00:33:00,
2013-03-16 20:42:00,63.0,49.0,30.10,WNW,295,5.0,9.0,60,0.00,,,0.00,,2013-03-17 00:42:00,
2013-03-16 20:52:00,63.0,50.0,30.10,West,278,4.0,10.0,63,0.00,,,0.00,,2013-03-17 00:52:00,
2013-03-16 21:03:00,62.0,51.0,30.11,WSW,258,4.0,8.0,66,0.00,,,0.00,,2013-03-17 01:03:00,
2013-03-16 21:12:00,62.0,51.0,30.11,WSW,258,4.0,8.0,66,0.00,,,0.00,,2013-03-17 01:12:00,
2013-03-16 21:22:00,62.0,52.0,30.11,WSW,247,5.0,9.0,69,0.00,,,0.00,,2013-03-17 01:22:00,
2013-03-16 21:32:00,61.0,52.0,30.11,WSW,254,3.0,8.0,71,0.00,,,0.00,,2013-03-17 01:32:00,
2013-03-16 21:42:00,61.0,52.0,30.11,WSW,254,3.0,8.0,71,0.00,,,0.00,,2013-03-17 01:42:00,
2013-03-16 21:52:00,60.0,52.0,30.12,West,270,2.0,6.0,74,0.00,,,0.00,,2013-03-17 01:52:00,
2013-03-16 22:03:00,60.0,52.0,30.12,West,271,3.0,6.0,76,0.00,,,0.00,,2013-03-17 02:03:00,
2013-03-16 22:13:00,60.0,52.0,30.12,West,271,3.0,6.0,76,0.00,,,0.00,,2013-03-17 02:13:00,
2013-03-16 22:22:00,59.0,53.0,30.13,West,274,2.0,5.0,80,0.00,,,0.00,,2013-03-17 02:22:00,
2013-03-16 22:33:00,58.0,53.0,30.13,West,269,1.0,4.0,82,0.00,,,0.00,,2013-03-17 02:33:00,
2013-03-16 22:43:00,58.0,53.0,30.13,West,269,1.0,4.0,82,0.00,,,0.00,,2013-03-17 02:43:00,
2013-03-16 22:52:00,57.0,52.0,30.13,West,263,1.0,3.0,84,0.00,,,0.00,,2013-03-17 02:52:00,
2013-03-16 23:03:00,56.0,52.0,30.13,West,277,0.0,4.0,87,0.00,,,0.00,,2013-03-17 03:03:00,
2013-03-16 23:12:00,56.0,52.0,30.13,West,277,0.0,4.0,87,0.00,,,0.00,,2013-03-17 03:12:00,
2013-03-16 23:23:00,55.0,52.0,30.14,West,275,1.0,3.0,89,0.00,,,0.00,,2013-03-17 03:23:00,
2013-03-16 23:34:00,55.0,52.0,30.14,West,273,1.0,3.0,91,0.00,,,0.00,,2013-03-17 03:34:00,
2013-03-16 23:43:00,55.0,52.0,30.14,West,273,1.0,3.0,91,0.00,,,0.00,,2013-03-17 03:43:00,
2013-03-16 23:52:00,55.0,53.0,30.14,West,267,0.0,3.0,92,0.00,,,0.00,,2013-03-17 03:52:00,